Time;durP1;ratioP1;P1;durP2;ratioP2;P2;SDS_P1;SDS_P2;PMS_P1;PMS_P2;Temp;Humidity;BMP_temperature;BMP_pressure;BME280_temperature;BME280_humidity;BME280_pressure;Samples;Min_cycle;Max_cycle;Signal;HPM_P1;HPM_P2
2023/08/22 00:01:56;;;;;;;11.10;10.10;;;;;;;26.90;56.49;96593.28;5066213;28;20658;-68
2023/08/22 00:04:21;;;;;;;10.80;9.77;;;;;;;26.88;56.56;96573.75;5066081;28;20674;-66
2023/08/22 00:06:47;;;;;;;12.20;10.93;;;;;;;26.89;56.32;96574.63;5066171;28;20166;-68
2023/08/22 00:09:12;;;;;;;10.03;9.10;;;;;;;26.89;56.02;96577.31;5065691;28;20215;-67
2023/08/22 00:11:37;;;;;;;11.47;10.30;;;;;;;26.85;56.03;96567.88;5068989;28;20169;-67
2023/08/22 00:14:03;;;;;;;9.60;8.70;;;;;;;26.87;55.99;96564.00;5086432;28;20173;-67
2023/08/22 00:16:29;;;;;;;11.33;9.70;;;;;;;26.88;56.10;96565.69;5086574;28;20184;-68
2023/08/22 00:18:55;;;;;;;11.00;9.80;;;;;;;26.89;56.67;96561.16;5085991;28;20180;-67
2023/08/22 00:21:20;;;;;;;11.13;10.03;;;;;;;26.94;55.95;96559.66;5086117;28;20441;-67
2023/08/22 00:23:46;;;;;;;12.93;10.03;;;;;;;26.93;56.38;96554.41;5086172;28;20192;-68
2023/08/22 00:26:11;;;;;;;10.97;9.80;;;;;;;26.91;56.15;96567.22;5086157;28;20202;-68
2023/08/22 00:28:36;;;;;;;11.07;10.07;;;;;;;26.85;56.62;96557.09;5086173;28;20653;-68
2023/08/22 00:31:02;;;;;;;11.23;9.97;;;;;;;26.90;56.28;96558.28;5085707;28;20298;-68
2023/08/22 00:33:27;;;;;;;10.70;9.67;;;;;;;26.91;56.17;96557.28;5085979;28;20174;-68
2023/08/22 00:35:53;;;;;;;14.70;10.37;;;;;;;26.94;56.10;96556.94;5086147;28;20180;-68
2023/08/22 00:38:18;;;;;;;11.13;10.03;;;;;;;26.94;56.20;96558.81;5086355;28;20169;-69
2023/08/22 00:40:43;;;;;;;11.83;10.30;;;;;;;26.90;56.29;96560.13;5085909;28;20744;-68
2023/08/22 00:43:09;;;;;;;11.20;9.60;;;;;;;26.82;56.38;96559.13;5085933;28;20935;-67
2023/08/22 00:45:36;;;;;;;11.17;10.23;;;;;;;26.81;56.53;96545.81;5085977;28;20212;-68
2023/08/22 00:48:02;;;;;;;11.27;10.13;;;;;;;26.78;56.46;96541.59;5085817;28;20530;-68
2023/08/22 00:50:28;;;;;;;13.57;10.03;;;;;;;26.75;56.38;96539.25;5085542;28;20449;-68
2023/08/22 00:52:54;;;;;;;10.50;9.50;;;;;;;26.79;56.35;96543.31;5085809;28;20188;-69
2023/08/22 00:55:19;;;;;;;11.80;10.70;;;;;;;26.81;55.93;96541.28;5086183;28;20399;-67
2023/08/22 00:57:45;;;;;;;12.77;9.90;;;;;;;26.81;56.49;96538.59;5085959;28;20281;-67
2023/08/22 01:00:11;;;;;;;12.60;10.10;;;;;;;26.53;57.19;96539.84;5085450;28;20215;-68
2023/08/22 01:02:39;;;;;;;15.63;11.23;;;;;;;26.57;57.30;96533.97;5085781;28;20174;-68
2023/08/22 01:05:07;;;;;;;12.40;9.50;;;;;;;26.69;56.77;96531.81;5086765;28;20651;-68
2023/08/22 01:07:52;;;;;;;10.60;9.47;;;;;;;26.70;56.94;96530.81;5089589;28;20419;-69
2023/08/22 01:10:21;;;;;;;9.90;9.00;;;;;;;26.78;56.25;96530.00;5088982;28;20533;-69
2023/08/22 01:12:55;;;;;;;11.00;10.00;;;;;;;26.74;56.14;96528.63;5076988;28;20403;-68
2023/08/22 01:15:28;;;;;;;11.43;10.10;;;;;;;26.70;56.38;96532.69;5069197;28;20436;-69
2023/08/22 01:17:54;;;;;;;10.93;9.97;;;;;;;26.65;56.52;96533.16;5069036;28;20416;-67
2023/08/22 01:20:21;;;;;;;14.30;10.40;;;;;;;26.56;56.77;96528.78;5068744;28;20438;-67
2023/08/22 01:22:47;;;;;;;10.53;9.60;;;;;;;26.53;56.69;96529.06;5068822;28;20521;-68
2023/08/22 01:25:13;;;;;;;10.53;9.60;;;;;;;26.48;57.10;96520.63;5068891;28;20451;-67
2023/08/22 01:27:56;;;;;;;10.93;9.83;;;;;;;26.43;57.18;96525.66;5068898;28;20177;-67
2023/08/22 01:30:32;;;;;;;10.87;9.77;;;;;;;26.43;57.03;96525.66;5068749;28;20189;-67
2023/08/22 01:33:05;;;;;;;12.13;9.77;;;;;;;26.43;57.21;96522.97;5069256;28;20415;-67
2023/08/22 01:35:32;;;;;;;11.93;9.33;;;;;;;26.41;57.21;96528.53;5068911;28;20822;-67
2023/08/22 01:37:58;;;;;;;12.90;10.40;;;;;;;26.39;57.03;96525.16;5068918;28;20465;-67
2023/08/22 01:40:24;;;;;;;10.27;9.40;;;;;;;26.43;57.25;96526.50;5068225;28;20439;-68
2023/08/22 01:42:50;;;;;;;15.43;10.90;;;;;;;26.37;57.44;96522.63;5068461;28;20404;-69
2023/08/22 01:45:15;;;;;;;10.07;9.07;;;;;;;26.42;57.20;96521.28;5068379;28;20202;-68
2023/08/22 01:47:41;;;;;;;10.17;9.37;;;;;;;26.34;57.75;96533.72;5068488;28;20177;-68
2023/08/22 01:50:07;;;;;;;10.63;9.73;;;;;;;26.33;57.63;96523.09;5068095;28;20193;-68
2023/08/22 01:52:32;;;;;;;11.80;10.53;;;;;;;26.29;57.74;96521.72;5068453;28;20174;-68
2023/08/22 01:54:58;;;;;;;15.67;9.97;;;;;;;26.27;57.78;96521.06;5068444;28;20400;-69
2023/08/22 01:57:23;;;;;;;11.77;9.83;;;;;;;26.30;57.89;96521.59;5068789;28;20212;-69
2023/08/22 01:59:49;;;;;;;10.87;9.87;;;;;;;26.24;57.70;96519.53;5069138;28;20192;-68
2023/08/22 02:02:14;;;;;;;10.87;9.77;;;;;;;26.23;57.96;96517.84;5068189;28;20228;-68
2023/08/22 02:04:39;;;;;;;12.87;10.43;;;;;;;26.15;58.34;96520.50;5068134;28;20625;-68
2023/08/22 02:07:05;;;;;;;10.47;9.47;;;;;;;26.15;57.99;96517.81;5068101;28;20166;-67
2023/08/22 02:09:30;;;;;;;10.30;9.40;;;;;;;26.14;58.17;96522.34;5067762;28;20683;-68
2023/08/22 02:11:56;;;;;;;10.77;9.67;;;;;;;26.09;58.13;96518.47;5073378;28;20192;-67
2023/08/22 02:14:21;;;;;;;13.97;10.10;;;;;;;26.09;58.06;96513.94;5088318;28;20181;-67
2023/08/22 02:16:46;;;;;;;10.87;9.87;;;;;;;26.14;57.85;96514.28;5088779;28;20840;-69
2023/08/22 02:19:12;;;;;;;11.67;9.90;;;;;;;26.11;58.33;96511.94;5088590;28;20648;-67
2023/08/22 02:21:37;;;;;;;9.93;8.93;;;;;;;26.10;58.21;96510.25;5088877;28;20184;-67
2023/08/22 02:24:03;;;;;;;10.60;9.10;;;;;;;26.12;57.74;96512.75;5087940;28;20266;-68
2023/08/22 02:26:30;;;;;;;11.30;10.30;;;;;;;26.03;58.17;96503.81;5088314;28;20180;-67
2023/08/22 02:28:56;;;;;;;11.30;10.20;;;;;;;25.97;58.48;96504.47;5087884;28;20293;-68
2023/08/22 02:31:21;;;;;;;11.10;9.60;;;;;;;25.97;57.99;96507.16;5087921;28;20518;-67
2023/08/22 02:33:46;;;;;;;10.50;9.37;;;;;;;25.92;58.32;96514.88;5088111;28;20162;-68
2023/08/22 02:36:12;;;;;;;9.93;8.93;;;;;;;25.97;58.10;96504.47;5087831;28;20856;-68
2023/08/22 02:38:37;;;;;;;10.20;9.20;;;;;;;25.96;58.34;96502.75;5087657;28;20173;-68
2023/08/22 02:41:03;;;;;;;12.03;9.43;;;;;;;25.98;57.87;96507.00;5087271;28;20991;-68
2023/08/22 02:43:30;;;;;;;11.40;10.03;;;;;;;25.94;58.10;96496.72;5087803;28;20197;-68
2023/08/22 02:45:55;;;;;;;10.67;9.73;;;;;;;25.97;58.03;96494.53;5087578;28;20260;-69
2023/08/22 02:48:21;;;;;;;13.27;8.40;;;;;;;25.98;57.98;96493.56;5087580;28;20896;-69
2023/08/22 02:50:49;;;;;;;11.67;10.20;;;;;;;25.94;57.79;96499.41;5087249;28;20280;-69
2023/08/22 02:53:15;;;;;;;9.77;8.87;;;;;;;25.93;58.04;96497.72;5087331;28;20185;-68
2023/08/22 02:55:41;;;;;;;10.83;9.73;;;;;;;25.88;58.10;96498.19;5087233;28;20404;-68
2023/08/22 02:58:07;;;;;;;13.53;10.03;;;;;;;25.80;58.75;96495.44;5087235;28;20207;-67
2023/08/22 03:00:34;;;;;;;9.87;8.87;;;;;;;25.90;57.79;96501.56;5086929;28;20793;-68
2023/08/22 03:03:00;;;;;;;10.30;9.17;;;;;;;25.85;58.11;96498.50;5087414;28;20408;-68
2023/08/22 03:05:26;;;;;;;10.70;9.70;;;;;;;25.76;58.08;96494.06;5087212;28;20881;-68
2023/08/22 03:07:51;;;;;;;11.10;10.07;;;;;;;25.82;58.16;96490.75;5087125;28;20447;-68
2023/08/22 03:10:16;;;;;;;14.33;10.80;;;;;;;25.81;58.23;96485.53;5087118;28;20197;-68
2023/08/22 03:12:42;;;;;;;13.43;9.30;;;;;;;25.79;58.31;96485.69;5075304;28;20185;-68
2023/08/22 03:15:07;;;;;;;15.30;9.73;;;;;;;25.72;58.58;96488.16;5066876;28;20201;-68
2023/08/22 03:17:33;;;;;;;22.23;10.00;;;;;;;25.75;58.08;96489.72;5066763;28;20198;-67
2023/08/22 03:19:58;;;;;;;11.93;9.60;;;;;;;25.79;58.19;96491.06;5066194;28;20311;-68
2023/08/22 03:22:26;;;;;;;12.03;10.23;;;;;;;25.80;57.67;96494.59;5066469;28;20205;-68
2023/08/22 03:24:51;;;;;;;10.80;9.80;;;;;;;25.54;58.66;96498.16;5066678;28;20880;-67
2023/08/22 03:27:16;;;;;;;10.37;9.33;;;;;;;25.45;58.70;96504.47;5066197;28;20419;-67
2023/08/22 03:29:42;;;;;;;11.40;9.50;;;;;;;25.50;58.47;96497.59;5066158;28;20221;-68
2023/08/22 03:32:07;;;;;;;22.30;10.07;;;;;;;25.40;58.92;96494.19;5066492;28;20204;-66
2023/08/22 03:34:33;;;;;;;22.43;10.07;;;;;;;25.40;59.17;96498.72;5066529;28;20177;-66
2023/08/22 03:36:58;;;;;;;12.43;8.73;;;;;;;25.49;58.78;96495.94;5066460;28;20207;-67
2023/08/22 03:39:23;;;;;;;10.37;8.80;;;;;;;25.37;59.16;96502.56;5066219;28;20181;-68
2023/08/22 03:41:49;;;;;;;12.30;10.60;;;;;;;25.35;59.34;96509.94;5066605;28;20184;-69
2023/08/22 03:44:14;;;;;;;16.80;9.93;;;;;;;25.30;59.26;96518.47;5066360;28;20883;-69
2023/08/22 03:46:39;;;;;;;19.90;9.93;;;;;;;25.19;59.97;96515.19;5066058;28;20182;-68
2023/08/22 03:49:05;;;;;;;11.20;9.07;;;;;;;25.10;60.18;96517.75;5065913;28;20174;-68
2023/08/22 03:51:30;;;;;;;13.00;10.17;;;;;;;25.15;59.59;96517.28;5066137;28;20189;-67
2023/08/22 03:53:55;;;;;;;16.20;10.07;;;;;;;25.17;59.98;96514.47;5066079;28;20213;-68
2023/08/22 03:56:21;;;;;;;13.30;10.97;;;;;;;25.11;60.25;96518.59;5066172;28;20166;-67
2023/08/22 03:58:46;;;;;;;14.00;10.90;;;;;;;25.10;60.99;96512.38;5066088;28;20291;-67
2023/08/22 04:01:13;;;;;;;12.03;10.77;;;;;;;25.08;60.52;96516.22;5066221;28;20348;-68
2023/08/22 04:03:38;;;;;;;20.33;11.23;;;;;;;25.10;61.01;96515.06;5066445;28;20962;-69
2023/08/22 04:06:07;;;;;;;17.30;10.83;;;;;;;25.29;60.58;96511.38;5066195;28;20503;-76
2023/08/22 04:08:32;;;;;;;20.07;11.17;;;;;;;25.08;61.14;96511.69;5061787;28;20489;-71
2023/08/22 04:10:57;;;;;;;23.03;13.70;;;;;;;25.10;62.15;96511.53;5065468;28;20524;-70
2023/08/22 04:13:23;;;;;;;38.17;14.83;;;;;;;25.12;63.36;96517.59;5077474;28;20169;-68
2023/08/22 04:15:48;;;;;;;31.47;15.27;;;;;;;25.00;63.49;96516.16;5046236;28;20218;-68
2023/08/22 04:18:14;;;;;;;20.50;14.93;;;;;;;24.89;63.88;96525.28;5045992;28;20293;-71
2023/08/22 04:20:42;;;;;;;15.27;13.50;;;;;;;24.78;63.85;96525.50;5058502;28;20206;-69
2023/08/22 04:23:08;;;;;;;14.80;13.37;;;;;;;24.70;64.87;96523.59;5057772;28;20361;-68
2023/08/22 04:25:33;;;;;;;17.60;14.50;;;;;;;24.65;64.54;96523.19;5066029;28;20535;-70
2023/08/22 04:27:59;;;;;;;24.17;13.13;;;;;;;24.69;64.85;96522.75;5065836;28;20531;-70
2023/08/22 04:30:24;;;;;;;17.17;13.67;;;;;;;24.69;64.01;96524.59;5065578;28;20198;-71
2023/08/22 04:32:50;;;;;;;20.80;13.57;;;;;;;24.70;63.91;96528.94;5066106;28;20189;-67
2023/08/22 04:35:15;;;;;;;21.03;13.77;;;;;;;24.65;64.11;96532.09;5065917;28;20182;-69
2023/08/22 04:37:40;;;;;;;21.93;15.00;;;;;;;24.68;63.84;96523.72;5065972;28;20173;-70
2023/08/22 04:40:06;;;;;;;13.20;12.00;;;;;;;24.68;64.00;96521.03;5067180;28;20208;-69
2023/08/22 04:42:32;;;;;;;18.07;13.70;;;;;;;24.72;63.16;96525.13;5070613;28;20212;-69
2023/08/22 04:44:57;;;;;;;60.70;14.20;;;;;;;24.75;63.06;96520.44;5070522;28;20569;-69
2023/08/22 04:47:22;;;;;;;18.80;14.20;;;;;;;24.74;63.34;96527.66;5071013;28;20235;-69
2023/08/22 04:49:48;;;;;;;17.53;11.77;;;;;;;24.84;62.81;96531.09;5069941;28;20194;-68
2023/08/22 04:52:13;;;;;;;14.50;13.00;;;;;;;24.92;62.91;96531.19;5069649;28;20683;-69
2023/08/22 04:54:39;;;;;;;20.93;12.90;;;;;;;25.02;62.14;96538.34;5070830;28;20927;-71
2023/08/22 04:57:04;;;;;;;39.97;13.63;;;;;;;25.08;61.78;96533.16;5071457;28;20178;-68
2023/08/22 04:59:29;;;;;;;31.03;13.20;;;;;;;25.10;62.00;96531.19;5066715;28;20656;-67
2023/08/22 05:01:55;;;;;;;14.33;11.97;;;;;;;25.07;61.56;96533.34;5068559;28;20174;-68
2023/08/22 05:04:20;;;;;;;15.10;11.87;;;;;;;24.95;61.82;96530.06;5070069;28;20201;-67
2023/08/22 05:06:46;;;;;;;15.13;11.40;;;;;;;24.88;61.77;96529.81;5070225;28;20180;-69
2023/08/22 05:09:15;;;;;;;16.63;10.83;;;;;;;24.90;61.29;96535.03;5070284;28;20246;-67
2023/08/22 05:11:40;;;;;;;25.23;11.40;;;;;;;24.99;60.90;96534.09;5073452;28;20638;-67
2023/08/22 05:14:08;;;;;;;17.57;11.50;;;;;;;25.03;60.52;96526.59;5090367;28;20403;-68
2023/08/22 05:16:33;;;;;;;14.07;9.93;;;;;;;25.08;60.58;96540.38;5090269;28;20176;-67
2023/08/22 05:18:59;;;;;;;15.60;10.77;;;;;;;25.08;60.17;96535.84;5089794;28;20415;-69
2023/08/22 05:21:24;;;;;;;20.47;11.77;;;;;;;25.09;60.42;96542.94;5089921;28;20204;-68
2023/08/22 05:23:50;;;;;;;23.53;11.63;;;;;;;25.46;58.93;96533.84;5089843;28;20218;-69
2023/08/22 05:26:15;;;;;;;16.43;9.80;;;;;;;26.21;56.55;96524.41;5089949;28;20205;-66
2023/08/22 05:28:40;;;;;;;21.63;11.03;;;;;;;26.82;54.34;96525.97;5089861;28;20177;-67
2023/08/22 05:31:06;;;;;;;27.27;10.97;;;;;;;27.22;53.30;96535.13;5089553;28;20203;-69
2023/08/22 05:33:31;;;;;;;13.73;9.87;;;;;;;27.69;52.02;96537.13;5089919;28;20177;-67
2023/08/22 05:35:56;;;;;;;17.93;10.37;;;;;;;27.69;51.70;96537.13;5089872;28;20169;-68
2023/08/22 05:38:23;;;;;;;16.10;8.80;;;;;;;27.92;51.43;96533.72;5089945;28;20197;-67
2023/08/22 05:40:48;;;;;;;11.33;10.13;;;;;;;27.91;50.93;96540.16;5089216;28;20185;-69
2023/08/22 05:43:13;;;;;;;10.20;9.20;;;;;;;28.06;50.86;96535.72;5089380;28;20942;-70
2023/08/22 05:45:39;;;;;;;11.20;9.67;;;;;;;28.14;51.11;96532.16;5089608;28;20196;-69
2023/08/22 05:48:05;;;;;;;15.83;11.90;;;;;;;28.24;51.24;96533.63;5089453;28;20255;-70
2023/08/22 05:50:31;;;;;;;14.73;13.20;;;;;;;28.31;51.98;96536.47;5089098;28;20220;-68
2023/08/22 05:52:56;;;;;;;13.53;12.23;;;;;;;28.37;52.12;96537.63;5089425;28;20492;-68
2023/08/22 05:55:22;;;;;;;27.73;14.57;;;;;;;28.67;51.47;96542.22;5089338;28;20482;-66
2023/08/22 05:57:47;;;;;;;18.07;13.90;;;;;;;28.82;51.02;96550.44;5089242;28;20273;-69
2023/08/22 06:00:13;;;;;;;18.10;13.70;;;;;;;28.99;50.75;96545.78;5088834;28;20185;-67
2023/08/22 06:02:39;;;;;;;20.07;14.10;;;;;;;29.11;50.22;96543.53;5089290;28;20164;-71
2023/08/22 06:05:06;;;;;;;47.27;14.93;;;;;;;29.30;49.56;96540.34;5089164;28;20962;-69
2023/08/22 06:07:32;;;;;;;36.77;16.60;;;;;;;29.50;49.16;96550.66;5088934;28;20177;-68
2023/08/22 06:09:58;;;;;;;25.43;12.90;;;;;;;29.63;49.21;96541.94;5088617;28;20423;-69
2023/08/22 06:12:24;;;;;;;25.57;13.77;;;;;;;29.83;49.10;96540.38;5079387;28;20196;-70
2023/08/22 06:14:49;;;;;;;17.17;12.60;;;;;;;29.94;48.73;96544.53;5068888;28;20421;-68
2023/08/22 06:17:14;;;;;;;15.67;14.07;;;;;;;29.94;48.31;96544.53;5068150;28;20300;-66
2023/08/22 06:19:40;;;;;;;22.33;11.20;;;;;;;30.25;47.46;96540.81;5068171;28;20185;-68
2023/08/22 06:22:05;;;;;;;14.50;10.63;;;;;;;30.29;47.34;96544.84;5068550;28;20638;-68
2023/08/22 06:24:30;;;;;;;16.57;11.90;;;;;;;30.40;47.18;96541.66;5068723;28;20241;-68
2023/08/22 06:26:56;;;;;;;24.50;14.07;;;;;;;30.48;46.88;96544.25;5068471;28;20215;-69
2023/08/22 06:29:21;;;;;;;19.53;11.70;;;;;;;30.69;46.31;96548.06;5068201;28;20176;-68
2023/08/22 06:31:46;;;;;;;26.43;13.57;;;;;;;30.77;46.19;96542.53;5068390;28;20196;-68
2023/08/22 06:34:12;;;;;;;13.70;10.30;;;;;;;30.88;45.65;96541.25;5068330;28;20208;-68
2023/08/22 06:36:37;;;;;;;15.20;10.90;;;;;;;31.01;44.84;96542.19;5068199;28;20173;-68
2023/08/22 06:39:05;;;;;;;24.23;11.10;;;;;;;30.99;44.79;96547.00;5068129;28;20178;-68
2023/08/22 06:41:30;;;;;;;14.40;11.63;;;;;;;31.14;45.19;96538.81;5068041;28;20193;-68
2023/08/22 06:43:55;;;;;;;19.03;12.17;;;;;;;31.10;44.91;96544.78;5068132;28;20403;-68
2023/08/22 06:46:21;;;;;;;14.70;10.40;;;;;;;31.06;45.17;96543.50;5068072;28;20268;-68
2023/08/22 06:48:50;;;;;;;20.93;10.10;;;;;;;31.41;44.29;96539.06;5067674;28;20255;-68
2023/08/22 06:51:15;;;;;;;19.80;11.43;;;;;;;31.60;43.79;96545.72;5068045;28;21091;-67
2023/08/22 06:53:40;;;;;;;26.10;12.63;;;;;;;31.77;43.11;96530.84;5068098;28;20404;-68
2023/08/22 06:56:06;;;;;;;20.40;11.60;;;;;;;31.72;43.29;96540.59;5068547;28;20279;-67
2023/08/22 06:58:31;;;;;;;19.60;11.03;;;;;;;31.94;42.71;96541.38;5068020;28;20174;-67
2023/08/22 07:00:57;;;;;;;20.17;11.70;;;;;;;32.05;42.79;96541.69;5068540;28;20690;-69
2023/08/22 07:03:23;;;;;;;12.53;11.33;;;;;;;31.96;42.75;96539.31;5070227;28;20201;-69
2023/08/22 07:05:54;;;;;;;35.13;12.53;;;;;;;32.20;42.43;96544.31;5069454;28;20742;-68
2023/08/22 07:08:20;;;;;;;15.70;10.70;;;;;;;32.46;41.80;96548.22;5068086;28;20196;-68
2023/08/22 07:10:46;;;;;;;27.57;9.80;;;;;;;32.58;41.97;96541.19;5066844;28;20940;-67
2023/08/22 07:13:11;;;;;;;13.30;9.90;;;;;;;32.71;41.25;96542.28;5083516;28;20699;-68
2023/08/22 07:15:37;;;;;;;18.20;10.20;;;;;;;32.85;40.96;96549.44;5103456;28;20191;-69
2023/08/22 07:18:02;;;;;;;12.07;9.40;;;;;;;32.60;40.40;96543.69;5088340;28;20173;-69
2023/08/22 07:20:27;;;;;;;20.20;11.20;;;;;;;32.87;40.46;96540.03;5087419;28;20185;-68
2023/08/22 07:22:53;;;;;;;17.43;9.30;;;;;;;32.99;40.96;96542.16;5087697;28;20172;-69
2023/08/22 07:25:18;;;;;;;13.37;9.33;;;;;;;33.23;39.91;96548.94;5087794;28;20200;-67
2023/08/22 07:27:44;;;;;;;30.20;10.03;;;;;;;33.27;39.69;96552.94;5087740;28;20173;-69
2023/08/22 07:30:10;;;;;;;12.70;9.87;;;;;;;33.32;39.04;96543.09;5086966;28;20280;-69
2023/08/22 07:32:35;;;;;;;15.03;9.57;;;;;;;33.35;39.23;96551.88;5087290;28;20567;-68
2023/08/22 07:35:00;;;;;;;11.50;8.10;;;;;;;33.50;38.18;96553.38;5087687;28;20218;-66
2023/08/22 07:37:26;;;;;;;20.83;8.03;;;;;;;33.62;37.93;96550.06;5087529;28;20606;-68
2023/08/22 07:39:51;;;;;;;17.00;8.00;;;;;;;33.83;38.18;96552.56;5087155;28;20553;-69
2023/08/22 07:42:17;;;;;;;25.97;9.20;;;;;;;33.72;37.70;96550.47;5087742;28;20539;-68
2023/08/22 07:44:43;;;;;;;15.77;7.27;;;;;;;33.94;37.98;96551.91;5087084;28;20239;-68
2023/08/22 07:47:08;;;;;;;14.77;7.50;;;;;;;33.99;37.26;96555.91;5087257;28;20193;-67
2023/08/22 07:49:34;;;;;;;9.27;6.80;;;;;;;33.77;37.55;96553.41;5087167;28;20223;-68
2023/08/22 07:51:59;;;;;;;10.97;7.67;;;;;;;33.95;37.92;96559.06;5087410;28;20165;-69
2023/08/22 07:54:24;;;;;;;36.33;11.00;;;;;;;34.07;37.07;96547.53;5087324;28;20176;-67
2023/08/22 07:56:50;;;;;;;17.70;7.70;;;;;;;34.31;37.50;96562.38;5087219;28;20171;-69
2023/08/22 07:59:15;;;;;;;13.87;8.47;;;;;;;34.43;36.54;96548.94;5086846;28;20169;-68
2023/08/22 08:01:41;;;;;;;13.07;7.70;;;;;;;34.53;36.18;96547.41;5086950;28;20198;-69
2023/08/22 08:04:08;;;;;;;11.10;7.67;;;;;;;34.48;36.33;96552.69;5086979;28;20196;-68
2023/08/22 08:06:34;;;;;;;10.50;8.10;;;;;;;34.49;36.86;96558.97;5087133;28;20168;-69
2023/08/22 08:09:00;;;;;;;25.43;9.70;;;;;;;34.69;36.13;96542.59;5086824;28;20186;-69
2023/08/22 08:11:29;;;;;;;14.80;7.83;;;;;;;34.53;36.38;96557.47;5085109;28;20197;-68
2023/08/22 08:13:54;;;;;;;30.27;9.27;;;;;;;34.63;36.59;96555.16;5066784;28;20181;-69
2023/08/22 08:16:20;;;;;;;13.67;7.87;;;;;;;34.78;36.26;96550.28;5066690;28;20231;-67
2023/08/22 08:18:45;;;;;;;17.37;8.57;;;;;;;34.69;35.84;96553.50;5066582;28;20202;-67
2023/08/22 08:21:11;;;;;;;26.30;8.90;;;;;;;34.70;36.33;96549.69;5066435;28;20194;-69
2023/08/22 08:23:36;;;;;;;21.37;8.80;;;;;;;34.62;37.20;96552.69;5066692;28;20256;-67
2023/08/22 08:26:03;;;;;;;18.00;9.13;;;;;;;34.16;37.71;96551.72;5066888;28;20194;-68
2023/08/22 08:28:29;;;;;;;14.73;8.87;;;;;;;34.16;37.81;96554.47;5066750;28;20227;-71
2023/08/22 08:30:55;;;;;;;15.50;8.13;;;;;;;34.71;37.16;96545.94;5066519;28;20185;-67
2023/08/22 08:33:20;;;;;;;10.53;8.30;;;;;;;34.97;36.26;96542.25;5067041;28;20170;-69
2023/08/22 08:35:46;;;;;;;23.27;9.07;;;;;;;35.09;36.34;96537.75;5066874;28;20165;-70
2023/08/22 08:38:11;;;;;;;12.33;7.93;;;;;;;35.20;35.97;96548.00;5066818;28;20174;-69
2023/08/22 08:40:39;;;;;;;14.10;8.50;;;;;;;35.32;35.26;96547.31;5066378;28;20276;-68
2023/08/22 08:43:04;;;;;;;18.77;8.87;;;;;;;35.27;35.39;96547.97;5066690;28;20514;-67
2023/08/22 08:45:33;;;;;;;24.87;9.70;;;;;;;34.83;36.23;96543.38;5066739;28;20193;-68
2023/08/22 08:47:59;;;;;;;15.27;8.20;;;;;;;34.92;36.18;96542.06;5067035;28;20193;-69
2023/08/22 08:50:25;;;;;;;9.13;8.20;;;;;;;34.60;36.78;96544.72;5066173;28;20205;-69
2023/08/22 08:52:51;;;;;;;16.43;9.20;;;;;;;33.67;39.12;96547.56;5066929;28;20657;-67
2023/08/22 08:55:17;;;;;;;14.13;8.53;;;;;;;34.19;38.06;96545.03;5066762;28;20162;-69
2023/08/22 08:57:42;;;;;;;11.67;8.30;;;;;;;34.42;37.55;96542.66;5066503;28;20554;-68
2023/08/22 09:00:08;;;;;;;17.37;9.03;;;;;;;34.88;37.04;96543.53;5066191;28;20296;-69
2023/08/22 09:02:34;;;;;;;11.57;8.07;;;;;;;34.87;36.23;96542.72;5066631;28;20622;-70
2023/08/22 09:05:00;;;;;;;11.97;8.87;;;;;;;34.75;36.82;96542.56;5067202;28;20224;-70
2023/08/22 09:07:25;;;;;;;10.57;8.40;;;;;;;34.25;37.49;96542.25;5077442;28;20169;-69
2023/08/22 09:09:51;;;;;;;11.00;7.93;;;;;;;35.06;36.54;96543.66;5075239;28;20197;-68
2023/08/22 09:12:16;;;;;;;22.30;8.77;;;;;;;34.41;36.92;96542.84;5066250;28;20239;-67
2023/08/22 09:14:47;;;;;;;17.60;9.60;;;;;;;34.83;37.36;96543.38;5081946;28;20176;-66
2023/08/22 09:17:18;;;;;;;16.00;9.67;;;;;;;34.00;37.46;96552.16;5086494;28;20176;-68
2023/08/22 09:19:44;;;;;;;12.30;9.20;;;;;;;33.62;37.95;96552.78;5086450;28;20185;-66
2023/08/22 09:22:15;;;;;;;11.73;9.37;;;;;;;33.28;38.10;96555.41;5079762;28;20172;-68
2023/08/22 09:24:50;;;;;;;12.93;9.60;;;;;;;33.83;37.48;96543.53;5066228;28;20206;-68
2023/08/22 09:27:16;;;;;;;12.07;8.53;;;;;;;34.07;37.26;96547.53;5068620;28;20180;-69
2023/08/22 09:29:42;;;;;;;10.53;8.27;;;;;;;34.31;37.75;96546.88;5069027;28;20196;-68
2023/08/22 09:32:07;;;;;;;13.23;9.43;;;;;;;34.61;36.85;96538.22;5069427;28;20166;-69
2023/08/22 09:34:34;;;;;;;16.07;9.17;;;;;;;34.81;36.38;96535.38;5069609;28;20166;-68
2023/08/22 09:37:00;;;;;;;11.40;8.70;;;;;;;35.27;35.74;96539.78;5069595;28;20208;-69
2023/08/22 09:39:26;;;;;;;12.17;9.00;;;;;;;34.10;37.68;96547.97;5077767;28;20192;-68
2023/08/22 09:41:56;;;;;;;13.17;8.80;;;;;;;33.80;38.74;96550.25;5089983;28;20180;-66
2023/08/22 09:44:24;;;;;;;23.90;8.27;;;;;;;34.68;35.84;96536.31;5089370;28;20215;-69
2023/08/22 09:46:51;;;;;;;8.60;7.20;;;;;;;34.54;34.77;96542.81;5089589;28;20192;-69
2023/08/22 09:49:17;;;;;;;9.23;6.93;;;;;;;34.16;35.81;96540.84;5089214;28;20243;-68
2023/08/22 09:51:48;;;;;;;12.83;7.67;;;;;;;34.51;35.44;96543.22;5089358;28;20177;-68
2023/08/22 09:54:14;;;;;;;8.13;6.87;;;;;;;34.18;36.00;96533.25;5089421;28;20257;-69
2023/08/22 09:56:41;;;;;;;10.30;9.07;;;;;;;33.34;38.42;96539.34;5089568;28;20770;-68
2023/08/22 09:59:06;;;;;;;17.20;9.73;;;;;;;33.47;38.61;96537.44;5088810;28;20172;-69
2023/08/22 10:01:38;;;;;;;12.90;9.10;;;;;;;33.26;38.23;96538.50;5089028;28;20237;-69
2023/08/22 10:04:05;;;;;;;8.43;7.53;;;;;;;32.42;39.14;96531.47;5089082;28;20256;-72
2023/08/22 10:06:33;;;;;;;9.33;7.63;;;;;;;32.31;38.93;96537.44;5089197;28;20456;-66
2023/08/22 10:09:00;;;;;;;10.70;7.73;;;;;;;32.97;38.35;96528.75;5088972;28;20482;-69
2023/08/22 10:11:28;;;;;;;9.57;7.90;;;;;;;33.20;37.73;96525.72;5089022;28;20195;-69
2023/08/22 10:13:53;;;;;;;13.77;10.00;;;;;;;33.30;39.31;96526.13;5077881;28;20449;-69
2023/08/22 10:16:20;;;;;;;8.60;7.70;;;;;;;32.95;39.64;96524.56;5069035;28;20209;-70
2023/08/22 10:18:45;;;;;;;15.90;10.77;;;;;;;33.19;39.89;96520.47;5068935;28;20196;-67
2023/08/22 10:21:11;;;;;;;10.57;8.77;;;;;;;33.60;38.33;96519.50;5069020;28;20423;-68
2023/08/22 10:23:52;;;;;;;10.87;8.63;;;;;;;33.79;37.76;96518.66;5068767;28;20256;-69
2023/08/22 10:26:22;;;;;;;29.83;9.53;;;;;;;34.15;35.40;96510.00;5068970;28;20181;-68
2023/08/22 10:29:17;;;;;;;16.57;7.97;;;;;;;34.54;34.60;96508.22;5068805;28;20211;-69
2023/08/22 10:32:00;;;;;;;10.17;7.93;;;;;;;34.73;33.61;96511.94;5068771;28;20520;-68
2023/08/22 10:34:26;;;;;;;15.03;7.50;;;;;;;34.67;34.32;96501.91;5068511;28;20178;-71
2023/08/22 10:36:59;;;;;;;14.20;7.70;;;;;;;34.71;33.77;96496.88;5068167;28;20256;-68
2023/08/22 10:39:39;;;;;;;16.53;8.37;;;;;;;35.08;33.78;96500.66;5067484;28;20177;-71
2023/08/22 10:42:16;;;;;;;11.27;7.60;;;;;;;35.22;33.58;96495.09;5068190;28;20173;-69
2023/08/22 10:44:42;;;;;;;8.27;7.53;;;;;;;34.77;34.20;96502.28;5068081;28;20575;-69
2023/08/22 10:47:14;;;;;;;10.87;7.50;;;;;;;33.80;35.52;96508.59;5068095;28;20170;-69
2023/08/22 10:49:40;;;;;;;16.63;9.20;;;;;;;33.48;36.19;96503.75;5067956;28;20279;-68
2023/08/22 10:52:07;;;;;;;11.73;8.40;;;;;;;33.62;36.13;96501.09;5068320;28;20170;-69
2023/08/22 10:54:53;;;;;;;15.87;7.93;;;;;;;33.53;36.10;96497.69;5067871;28;20178;-68
2023/08/22 10:57:19;;;;;;;10.73;7.67;;;;;;;33.57;36.39;96492.69;5057259;28;21139;-69
2023/08/22 10:59:59;;;;;;;9.90;7.00;;;;;;;33.55;36.55;96503.78;5067552;28;20272;-67
2023/08/22 11:02:29;;;;;;;7.60;6.77;;;;;;;33.81;36.26;96492.06;5068196;28;20169;-68
2023/08/22 11:05:00;;;;;;;11.23;6.83;;;;;;;34.15;34.45;96490.13;5067975;28;20685;-68
2023/08/22 11:07:27;;;;;;;8.50;6.27;;;;;;;33.74;35.10;96496.66;5067888;28;20543;-71
2023/08/22 11:09:55;;;;;;;8.10;7.20;;;;;;;33.41;35.66;96492.03;5067489;28;20219;-68
2023/08/22 11:12:22;;;;;;;9.20;7.40;;;;;;;33.17;36.00;96493.50;5068091;28;20279;-66
2023/08/22 11:14:50;;;;;;;7.63;6.23;;;;;;;33.10;36.57;96493.47;5086529;28;20165;-68
2023/08/22 11:17:17;;;;;;;17.93;8.30;;;;;;;33.17;36.53;96496.22;5087625;28;20819;-68
2023/08/22 11:19:43;;;;;;;18.60;8.23;;;;;;;33.21;37.33;96491.19;5087578;28;20189;-69